Time;durP1;ratioP1;P1;durP2;ratioP2;P2;SDS_P1;SDS_P2;PMS_P1;PMS_P2;Temp;Humidity;BMP_temperature;BMP_pressure;BME280_temperature;BME280_humidity;BME280_pressure;Samples;Min_cycle;Max_cycle;Signal;HPM_P1;HPM_P2
2022/10/27 00:00:42;;;;;;;0.82;0.70;;;12.40;99.90;;;;;;4369469;32;20086;-75
2022/10/27 00:03:10;;;;;;;0.70;0.52;;;12.40;99.90;;;;;;4361168;32;20597;-74
2022/10/27 00:05:36;;;;;;;0.82;0.75;;;12.50;99.90;;;;;;4348139;32;20122;-74
2022/10/27 00:08:01;;;;;;;0.40;0.40;;;12.50;99.90;;;;;;4365077;32;20082;-76
2022/10/27 00:10:27;;;;;;;0.60;0.60;;;12.50;99.90;;;;;;4365742;32;20522;-74
2022/10/27 00:12:52;;;;;;;0.62;0.62;;;12.60;99.90;;;;;;4366778;32;20114;-74
2022/10/27 00:15:18;;;;;;;0.95;0.90;;;12.60;99.90;;;;;;4369466;32;20117;-76
2022/10/27 00:17:44;;;;;;;0.47;0.47;;;12.60;99.90;;;;;;4373405;32;20075;-75
2022/10/27 00:20:09;;;;;;;1.73;1.15;;;12.50;99.90;;;;;;4371057;32;20507;-75
2022/10/27 00:22:35;;;;;;;1.70;1.08;;;12.50;99.90;;;;;;4373179;32;20075;-75
2022/10/27 00:25:01;;;;;;;8.75;0.85;;;12.40;99.90;;;;;;4369326;32;20090;-75
2022/10/27 00:27:27;;;;;;;4.45;1.02;;;12.30;99.90;;;;;;4372361;32;20145;-74
2022/10/27 00:29:52;;;;;;;0.45;0.45;;;12.30;99.90;;;;;;4372098;32;20099;-75
2022/10/27 00:32:18;;;;;;;0.40;0.40;;;12.20;99.90;;;;;;4369729;32;20071;-74
2022/10/27 00:34:43;;;;;;;0.47;0.47;;;12.20;99.90;;;;;;4356230;32;21210;-73
2022/10/27 00:37:09;;;;;;;0.70;0.70;;;12.20;99.90;;;;;;4359917;32;20094;-75
2022/10/27 00:39:34;;;;;;;3.17;1.02;;;12.10;99.90;;;;;;4370260;32;20146;-75
2022/10/27 00:42:01;;;;;;;0.50;0.50;;;12.10;99.90;;;;;;4369232;32;20074;-75
2022/10/27 00:44:36;;;;;;;0.75;0.75;;;12.10;99.90;;;;;;4368986;32;20066;-74
2022/10/27 00:47:10;;;;;;;1.23;0.60;;;12.10;99.90;;;;;;4370616;32;20098;-75
2022/10/27 00:49:44;;;;;;;1.30;1.15;;;12.00;99.90;;;;;;4374467;32;20082;-75
2022/10/27 00:52:21;;;;;;;0.40;0.40;;;12.00;99.90;;;;;;4371737;32;20123;-75
2022/10/27 00:54:46;;;;;;;1.45;1.30;;;12.00;99.90;;;;;;4371285;32;20432;-76
2022/10/27 00:57:12;;;;;;;0.60;0.60;;;12.00;99.90;;;;;;4370051;32;20215;-74
2022/10/27 00:59:38;;;;;;;1.00;0.70;;;12.00;99.90;;;;;;4370474;32;20538;-75
2022/10/27 01:02:06;;;;;;;0.52;0.52;;;12.00;99.90;;;;;;4372144;32;20137;-75
2022/10/27 01:04:42;;;;;;;2.53;1.20;;;12.00;99.90;;;;;;4358139;32;20149;-74
2022/10/27 01:07:07;;;;;;;0.45;0.45;;;12.00;99.90;;;;;;4361763;32;20059;-75
2022/10/27 01:09:33;;;;;;;0.40;0.40;;;12.00;99.90;;;;;;4372166;32;20560;-75
2022/10/27 01:11:59;;;;;;;0.45;0.45;;;12.00;99.90;;;;;;4372285;32;20531;-75
2022/10/27 01:14:25;;;;;;;0.37;0.37;;;12.00;99.90;;;;;;4368135;32;20456;-75
2022/10/27 01:17:13;;;;;;;0.40;0.40;;;11.90;99.90;;;;;;4372618;32;20086;-75
2022/10/27 01:20:14;;;;;;;0.62;0.62;;;11.80;99.90;;;;;;4362388;32;20082;-74
2022/10/27 01:23:04;;;;;;;0.60;0.60;;;11.80;99.90;;;;;;4364649;32;20079;-76
2022/10/27 01:26:09;;;;;;;0.60;0.60;;;11.80;99.90;;;;;;4370083;32;20079;-75
2022/10/27 01:28:48;;;;;;;0.50;0.50;;;11.90;99.90;;;;;;4365938;32;20059;-75
2022/10/27 01:31:21;;;;;;;2.03;0.65;;;11.80;99.90;;;;;;4369449;32;20098;-74
2022/10/27 01:33:53;;;;;;;0.47;0.47;;;11.80;99.90;;;;;;4359790;32;21093;-74
2022/10/27 01:36:23;;;;;;;0.45;0.40;;;11.80;99.90;;;;;;4355648;32;20508;-74
2022/10/27 01:38:58;;;;;;;0.30;0.30;;;11.70;99.90;;;;;;4368855;32;20427;-74
2022/10/27 01:41:28;;;;;;;0.40;0.40;;;11.60;99.90;;;;;;4372772;32;20079;-75
2022/10/27 01:43:58;;;;;;;0.55;0.55;;;11.50;99.90;;;;;;4372886;32;20083;-75
2022/10/27 01:46:24;;;;;;;0.65;0.65;;;11.60;99.90;;;;;;4370670;32;20079;-75
2022/10/27 01:48:50;;;;;;;1.35;1.02;;;11.50;99.90;;;;;;4368230;32;20079;-74
2022/10/27 01:51:16;;;;;;;3.08;0.75;;;11.50;99.90;;;;;;4368663;32;20067;-75
2022/10/27 01:53:45;;;;;;;1.80;1.08;;;11.40;99.90;;;;;;4370089;32;20117;-75
2022/10/27 01:56:38;;;;;;;0.62;0.62;;;11.40;99.90;;;;;;4368985;32;20106;-74
2022/10/27 01:59:18;;;;;;;0.50;0.50;;;11.30;99.90;;;;;;4366509;32;20474;-75
2022/10/27 02:02:10;;;;;;;3.87;1.02;;;11.40;99.90;;;;;;4371028;32;20086;-75
2022/10/27 02:04:48;;;;;;;0.70;0.70;;;11.30;99.90;;;;;;4350993;32;20090;-73
2022/10/27 02:07:19;;;;;;;0.40;0.40;;;11.20;99.90;;;;;;4359941;32;20087;-75
2022/10/27 02:09:58;;;;;;;0.50;0.50;;;11.10;99.90;;;;;;4373492;32;20525;-75
2022/10/27 02:12:29;;;;;;;3.83;1.62;;;11.20;99.90;;;;;;4363252;32;20094;-75
2022/10/27 02:14:56;;;;;;;;;;;11.10;99.90;;;;;;4370862;32;20083;-74
2022/10/27 02:17:25;;;;;;;0.82;0.70;;;11.20;99.90;;;;;;4370215;32;19945;-75
2022/10/27 02:19:52;;;;;;;0.88;0.88;;;11.20;99.90;;;;;;4370074;32;20082;-74
2022/10/27 02:22:19;;;;;;;0.50;0.50;;;11.30;99.90;;;;;;4372174;32;20082;-75
2022/10/27 02:24:45;;;;;;;0.50;0.50;;;11.30;99.90;;;;;;4372978;32;20077;-74
2022/10/27 02:27:22;;;;;;;0.73;0.73;;;11.30;99.90;;;;;;4375048;32;20072;-74
2022/10/27 02:29:49;;;;;;;0.62;0.62;;;11.20;99.90;;;;;;4373992;32;20066;-76
2022/10/27 02:32:18;;;;;;;0.57;0.57;;;11.20;99.90;;;;;;4371027;32;20826;-73
2022/10/27 02:34:46;;;;;;;1.55;0.73;;;11.20;99.90;;;;;;4356251;32;20668;-73
2022/10/27 02:37:19;;;;;;;1.20;1.08;;;11.20;99.90;;;;;;4363647;32;20054;-75
2022/10/27 02:39:45;;;;;;;0.30;0.30;;;11.30;99.90;;;;;;4369973;32;20095;-74
2022/10/27 02:42:10;;;;;;;1.05;0.70;;;11.30;99.90;;;;;;4367754;32;20136;-74
2022/10/27 02:44:36;;;;;;;0.55;0.55;;;11.30;99.90;;;;;;4366416;32;20099;-74
2022/10/27 02:47:01;;;;;;;0.57;0.57;;;11.20;99.90;;;;;;4371092;32;20137;-74
2022/10/27 02:49:27;;;;;;;1.55;0.80;;;11.20;99.90;;;;;;4369475;32;20090;-74
2022/10/27 02:51:52;;;;;;;2.50;1.08;;;11.20;99.90;;;;;;4371229;32;20129;-74
2022/10/27 02:54:17;;;;;;;7.90;0.57;;;11.20;99.90;;;;;;4369390;32;20447;-75
2022/10/27 02:56:43;;;;;;;2.08;0.88;;;11.20;99.90;;;;;;4369767;32;20067;-75
2022/10/27 02:59:08;;;;;;;0.55;0.50;;;11.30;99.90;;;;;;4368895;32;20086;-76
2022/10/27 03:01:35;;;;;;;5.20;1.10;;;11.40;99.90;;;;;;4369941;32;20062;-75
2022/10/27 03:04:00;;;;;;;1.17;0.98;;;11.40;99.90;;;;;;4358536;32;20141;-73
2022/10/27 03:06:26;;;;;;;1.45;1.15;;;11.40;99.90;;;;;;4354025;32;20269;-74
2022/10/27 03:08:51;;;;;;;0.88;0.88;;;11.30;99.90;;;;;;4369098;32;20432;-74
2022/10/27 03:11:17;;;;;;;2.20;1.25;;;11.30;99.90;;;;;;4371566;32;20058;-76
2022/10/27 03:13:42;;;;;;;0.82;0.77;;;11.20;99.90;;;;;;4370580;32;20087;-76
2022/10/27 03:16:07;;;;;;;1.17;0.80;;;11.20;99.90;;;;;;4368701;32;20055;-74
2022/10/27 03:18:33;;;;;;;0.50;0.50;;;11.30;99.90;;;;;;4371061;32;20063;-74
2022/10/27 03:20:58;;;;;;;1.00;0.75;;;11.30;99.90;;;;;;4370180;32;20087;-75
2022/10/27 03:23:24;;;;;;;1.45;1.20;;;11.30;99.90;;;;;;4368758;32;20066;-75
2022/10/27 03:25:49;;;;;;;4.05;1.60;;;11.30;99.90;;;;;;4368672;32;20067;-75
2022/10/27 03:28:15;;;;;;;25.55;0.80;;;11.20;99.90;;;;;;4371209;32;20086;-75
2022/10/27 03:30:40;;;;;;;0.60;0.60;;;11.20;99.90;;;;;;4370078;32;20177;-75
2022/10/27 03:33:06;;;;;;;0.68;0.68;;;11.20;99.90;;;;;;4364396;32;20082;-74
2022/10/27 03:35:31;;;;;;;10.68;0.57;;;11.10;99.90;;;;;;4352813;32;20063;-74
2022/10/27 03:37:59;;;;;;;0.43;0.43;;;11.10;99.90;;;;;;4363225;32;20502;-75
2022/10/27 03:40:25;;;;;;;0.65;0.55;;;11.10;99.90;;;;;;4369820;32;20130;-75
2022/10/27 03:42:57;;;;;;;0.70;0.70;;;11.00;99.90;;;;;;4371072;32;20070;-75
2022/10/27 03:45:24;;;;;;;0.50;0.50;;;11.20;99.90;;;;;;4369499;32;20063;-74
2022/10/27 03:47:58;;;;;;;0.60;0.60;;;11.30;99.90;;;;;;4368568;32;20070;-74
2022/10/27 03:50:23;;;;;;;4.65;1.23;;;11.20;99.90;;;;;;4369762;32;20092;-74
2022/10/27 03:52:49;;;;;;;1.27;0.82;;;11.20;99.90;;;;;;4370799;32;20067;-75
2022/10/27 03:55:14;;;;;;;0.62;0.50;;;11.20;99.90;;;;;;4370227;32;20628;-75
2022/10/27 03:57:40;;;;;;;1.37;1.00;;;11.10;99.90;;;;;;4370671;32;20585;-75
2022/10/27 04:00:06;;;;;;;0.88;0.85;;;11.10;99.90;;;;;;4375421;32;21447;-74
2022/10/27 04:02:31;;;;;;;0.60;0.60;;;11.10;99.90;;;;;;4369405;32;20126;-73
2022/10/27 04:04:57;;;;;;;0.65;0.65;;;11.20;99.90;;;;;;4355165;32;20087;-74
2022/10/27 04:07:22;;;;;;;0.65;0.65;;;11.20;99.90;;;;;;4362101;32;20091;-74
2022/10/27 04:09:48;;;;;;;0.65;0.62;;;11.30;99.90;;;;;;4370317;32;20074;-74
2022/10/27 04:12:13;;;;;;;0.82;0.82;;;11.30;99.90;;;;;;4370009;32;20127;-75
2022/10/27 04:14:39;;;;;;;0.50;0.50;;;11.40;99.90;;;;;;4372096;32;20447;-74
2022/10/27 04:17:04;;;;;;;1.95;0.93;;;11.40;99.90;;;;;;4370566;32;20146;-74
2022/10/27 04:19:30;;;;;;;7.32;0.70;;;11.50;99.90;;;;;;4372539;32;20066;-74
2022/10/27 04:21:55;;;;;;;1.27;1.17;;;11.60;99.90;;;;;;4372785;32;20078;-76
2022/10/27 04:24:21;;;;;;;0.73;0.73;;;11.60;99.90;;;;;;4369539;32;20427;-75
2022/10/27 04:26:47;;;;;;;0.47;0.47;;;11.60;99.90;;;;;;4370868;32;20078;-76
2022/10/27 04:29:13;;;;;;;0.45;0.45;;;11.50;99.90;;;;;;4371071;32;20069;-75
2022/10/27 04:31:38;;;;;;;0.90;0.60;;;11.30;99.90;;;;;;4373137;32;20075;-74
2022/10/27 04:34:04;;;;;;;0.60;0.60;;;11.20;99.90;;;;;;4359973;32;20424;-74
2022/10/27 04:36:29;;;;;;;0.57;0.57;;;11.20;99.90;;;;;;4354517;32;20158;-74
2022/10/27 04:38:55;;;;;;;0.45;0.45;;;11.20;99.90;;;;;;4372098;32;20518;-74
2022/10/27 04:41:20;;;;;;;0.37;0.37;;;11.10;99.90;;;;;;4373235;32;20070;-73
2022/10/27 04:43:50;;;;;;;1.10;0.70;;;11.00;99.90;;;;;;4372159;32;20078;-75
2022/10/27 04:46:16;;;;;;;0.40;0.40;;;10.90;99.90;;;;;;4372127;32;20082;-76
2022/10/27 04:48:42;;;;;;;0.40;0.40;;;10.80;99.90;;;;;;4370936;32;20094;-74
2022/10/27 04:51:07;;;;;;;15.45;0.62;;;10.90;99.90;;;;;;4373464;32;20059;-74
2022/10/27 04:53:33;;;;;;;0.40;0.40;;;10.90;99.90;;;;;;4370899;32;20086;-74
2022/10/27 04:55:58;;;;;;;1.30;0.85;;;10.90;99.90;;;;;;4372062;32;20066;-73
2022/10/27 04:58:24;;;;;;;1.95;0.98;;;10.90;99.90;;;;;;4370389;32;20554;-74
2022/10/27 05:00:49;;;;;;;0.45;0.45;;;10.90;99.90;;;;;;4365992;32;20162;-73
2022/10/27 05:03:15;;;;;;;1.35;1.25;;;10.90;99.90;;;;;;4354796;32;20446;-73
2022/10/27 05:05:40;;;;;;;0.80;0.60;;;10.90;99.90;;;;;;4345676;32;20067;-74
2022/10/27 05:08:08;;;;;;;0.45;0.45;;;10.90;99.90;;;;;;4360080;32;20609;-75
2022/10/27 05:10:34;;;;;;;1.08;0.95;;;11.00;99.90;;;;;;4364810;32;20145;-74
2022/10/27 05:12:59;;;;;;;0.50;0.50;;;10.90;99.90;;;;;;4356643;32;20661;-74
2022/10/27 05:15:26;;;;;;;0.82;0.60;;;10.90;99.90;;;;;;4357606;32;20086;-75
2022/10/27 05:17:51;;;;;;;0.50;0.50;;;11.00;99.90;;;;;;4360868;32;20082;-75
2022/10/27 05:20:17;;;;;;;0.60;0.60;;;11.00;99.90;;;;;;4362595;32;20455;-74
2022/10/27 05:22:42;;;;;;;0.75;0.70;;;11.00;99.90;;;;;;4361206;32;20533;-74
2022/10/27 05:25:09;;;;;;;0.40;0.40;;;11.00;99.90;;;;;;4360828;32;20126;-73
2022/10/27 05:27:36;;;;;;;0.43;0.40;;;11.00;99.90;;;;;;4367204;32;20054;-76
2022/10/27 05:30:02;;;;;;;0.50;0.50;;;11.10;99.90;;;;;;4367890;32;20070;-75
2022/10/27 05:32:27;;;;;;;3.85;1.50;;;11.10;99.90;;;;;;4359967;32;20083;-74
2022/10/27 05:34:53;;;;;;;0.55;0.55;;;11.10;99.90;;;;;;4351471;32;20832;-74
2022/10/27 05:37:18;;;;;;;0.68;0.68;;;11.00;99.90;;;;;;4360623;32;20115;-75
2022/10/27 05:39:44;;;;;;;3.10;0.93;;;11.00;99.90;;;;;;4372250;32;20091;-75
2022/10/27 05:42:09;;;;;;;0.50;0.50;;;11.00;99.90;;;;;;4369679;32;20079;-74
2022/10/27 05:44:35;;;;;;;0.30;0.30;;;11.00;99.90;;;;;;4366297;32;20079;-74
2022/10/27 05:47:00;;;;;;;0.57;0.57;;;11.00;99.90;;;;;;4365333;32;20091;-74
2022/10/27 05:49:26;;;;;;;2.42;1.17;;;11.00;99.90;;;;;;4373239;32;21249;-75
2022/10/27 05:51:51;;;;;;;1.27;0.70;;;10.90;99.90;;;;;;4375086;32;20127;-75
2022/10/27 05:54:17;;;;;;;0.57;0.57;;;11.10;99.90;;;;;;4352884;32;20196;-74
2022/10/27 05:56:43;;;;;;;0.55;0.55;;;11.20;99.90;;;;;;4369035;32;20137;-75
2022/10/27 05:59:10;;;;;;;0.98;0.82;;;11.10;99.90;;;;;;4369220;32;20523;-75
2022/10/27 06:01:36;;;;;;;0.77;0.52;;;11.10;99.90;;;;;;4360689;32;20058;-74
2022/10/27 06:04:01;;;;;;;1.92;1.20;;;11.20;99.90;;;;;;4352070;32;20192;-74
2022/10/27 06:06:27;;;;;;;0.50;0.50;;;11.30;99.90;;;;;;4353437;32;20098;-75
2022/10/27 06:08:52;;;;;;;13.50;3.15;;;11.40;99.90;;;;;;4373767;32;20475;-75
2022/10/27 06:11:18;;;;;;;0.62;0.62;;;11.40;99.90;;;;;;4368745;32;20070;-75
2022/10/27 06:13:43;;;;;;;0.75;0.65;;;11.40;99.90;;;;;;4361178;32;20145;-73
2022/10/27 06:16:09;;;;;;;3.30;2.03;;;11.40;99.90;;;;;;4362728;32;20082;-73
2022/10/27 06:18:34;;;;;;;0.80;0.80;;;11.50;99.90;;;;;;4371246;32;20090;-76
2022/10/27 06:21:00;;;;;;;0.60;0.60;;;11.50;99.90;;;;;;4370461;32;20155;-76
2022/10/27 06:23:25;;;;;;;1.12;0.90;;;11.60;99.90;;;;;;4372953;32;20063;-76
2022/10/27 06:25:50;;;;;;;0.80;0.80;;;11.50;99.90;;;;;;4370506;32;20119;-75
2022/10/27 06:28:16;;;;;;;1.30;1.02;;;11.50;99.90;;;;;;4371759;32;20066;-76
2022/10/27 06:30:44;;;;;;;0.62;0.62;;;11.60;99.90;;;;;;4367072;32;20086;-75
2022/10/27 06:33:09;;;;;;;0.50;0.50;;;11.60;99.90;;;;;;4352337;32;20087;-75
2022/10/27 06:35:34;;;;;;;3.62;0.77;;;11.60;99.90;;;;;;4350377;32;20107;-74
2022/10/27 06:38:00;;;;;;;0.85;0.68;;;11.70;99.90;;;;;;4365385;32;20110;-76
2022/10/27 06:40:25;;;;;;;0.57;0.57;;;11.70;99.90;;;;;;4369186;32;20095;-75
2022/10/27 06:42:52;;;;;;;2.60;0.85;;;11.60;99.90;;;;;;4363487;32;20631;-74
2022/10/27 06:45:18;;;;;;;2.33;0.77;;;11.70;99.90;;;;;;4359882;32;20097;-73
2022/10/27 06:47:43;;;;;;;0.93;0.80;;;11.70;99.90;;;;;;4370456;32;20740;-74
2022/10/27 06:50:09;;;;;;;0.85;0.70;;;11.70;99.90;;;;;;4371672;32;20078;-75
2022/10/27 06:52:36;;;;;;;0.60;0.60;;;11.70;99.90;;;;;;4368491;32;20077;-75
2022/10/27 06:55:02;;;;;;;4.05;1.95;;;11.70;99.90;;;;;;4375138;32;20102;-73
2022/10/27 06:57:27;;;;;;;2.55;1.20;;;11.70;99.90;;;;;;4370309;32;20521;-74
2022/10/27 06:59:52;;;;;;;0.65;0.57;;;11.80;99.90;;;;;;4366950;32;20154;-73
2022/10/27 07:02:18;;;;;;;0.55;0.55;;;11.80;99.90;;;;;;4359009;32;20141;-74
2022/10/27 07:04:44;;;;;;;0.62;0.62;;;11.80;99.90;;;;;;4346353;32;20245;-76
2022/10/27 07:07:09;;;;;;;0.30;0.30;;;11.90;99.90;;;;;;4358084;32;20082;-76
2022/10/27 07:09:35;;;;;;;4.93;2.30;;;12.00;99.90;;;;;;4369058;32;20078;-74
2022/10/27 07:12:00;;;;;;;2.40;1.60;;;12.10;99.90;;;;;;4366460;32;20062;-75
2022/10/27 07:14:25;;;;;;;1.08;0.90;;;12.00;99.90;;;;;;4363594;32;20103;-73
2022/10/27 07:16:51;;;;;;;2.12;0.77;;;12.10;99.90;;;;;;4364391;32;20161;-75
2022/10/27 07:19:16;;;;;;;6.45;1.42;;;12.10;99.90;;;;;;4370416;32;20070;-75
2022/10/27 07:21:42;;;;;;;0.70;0.70;;;12.20;99.90;;;;;;4370485;32;20103;-75
2022/10/27 07:24:07;;;;;;;0.43;0.43;;;12.20;99.90;;;;;;4368560;32;20095;-74
2022/10/27 07:26:33;;;;;;;0.45;0.45;;;12.20;99.90;;;;;;4372166;32;20412;-75
2022/10/27 07:28:58;;;;;;;1.00;0.88;;;12.20;99.90;;;;;;4368066;32;20070;-76
2022/10/27 07:31:24;;;;;;;12.27;1.25;;;12.20;99.90;;;;;;4363331;32;20098;-76
2022/10/27 07:33:49;;;;;;;0.85;0.80;;;12.20;99.90;;;;;;4352587;32;20082;-73
2022/10/27 07:36:15;;;;;;;4.25;1.48;;;12.20;99.90;;;;;;4352010;32;20066;-73
2022/10/27 07:38:40;;;;;;;1.10;1.00;;;12.20;99.90;;;;;;4366964;32;20097;-74
2022/10/27 07:41:06;;;;;;;2.05;0.73;;;12.30;99.90;;;;;;4369692;32;20098;-75
2022/10/27 07:43:31;;;;;;;0.60;0.60;;;12.40;99.90;;;;;;4358585;32;20523;-75
2022/10/27 07:45:57;;;;;;;0.45;0.45;;;12.50;99.90;;;;;;4360319;32;20126;-73
2022/10/27 07:48:22;;;;;;;4.05;1.15;;;12.60;99.90;;;;;;4370088;32;20067;-75
2022/10/27 07:50:48;;;;;;;0.50;0.50;;;12.70;99.90;;;;;;4370383;32;20123;-75
2022/10/27 07:53:15;;;;;;;0.50;0.50;;;12.70;99.90;;;;;;4367624;32;20110;-75
2022/10/27 07:55:40;;;;;;;0.40;0.40;;;12.80;99.90;;;;;;4367453;32;20106;-76
2022/10/27 07:58:10;;;;;;;1.15;0.77;;;12.90;99.90;;;;;;4370912;32;20073;-75
2022/10/27 08:00:38;;;;;;;0.77;0.73;;;13.00;99.90;;;;;;4363444;32;20115;-73
2022/10/27 08:03:06;;;;;;;4.12;1.15;;;13.10;99.90;;;;;;4351949;32;20070;-74
2022/10/27 08:05:33;;;;;;;0.85;0.70;;;13.10;99.90;;;;;;4348935;32;20530;-73
2022/10/27 08:08:02;;;;;;;4.30;1.77;;;13.20;99.90;;;;;;4363476;32;20130;-76
2022/10/27 08:10:28;;;;;;;0.50;0.50;;;13.20;99.90;;;;;;4369408;32;20066;-74
2022/10/27 08:12:54;;;;;;;1.73;0.95;;;13.30;99.90;;;;;;4361196;32;20559;-74
2022/10/27 08:15:19;;;;;;;0.60;0.60;;;13.40;99.90;;;;;;4363964;32;20389;-76
2022/10/27 08:17:51;;;;;;;1.08;1.00;;;13.40;99.90;;;;;;4365180;32;20091;-74
2022/10/27 08:20:17;;;;;;;1.25;0.82;;;13.40;99.90;;;;;;4369710;32;20074;-76
2022/10/27 08:22:43;;;;;;;0.50;0.50;;;13.50;99.90;;;;;;4370657;32;20700;-75
2022/10/27 08:25:08;;;;;;;0.82;0.82;;;13.40;99.90;;;;;;4369156;32;20094;-75
2022/10/27 08:27:33;;;;;;;7.80;1.12;;;13.50;99.90;;;;;;4368834;32;20079;-75
2022/10/27 08:29:59;;;;;;;2.45;0.80;;;13.60;99.90;;;;;;4368967;32;20101;-74
2022/10/27 08:32:24;;;;;;;0.93;0.93;;;13.70;99.90;;;;;;4356583;32;20061;-74
2022/10/27 08:34:50;;;;;;;0.52;0.52;;;13.70;99.90;;;;;;4344560;32;92294;-74
2022/10/27 08:37:15;;;;;;;1.95;0.82;;;13.80;99.90;;;;;;4360066;32;20082;-75
2022/10/27 08:39:41;;;;;;;1.77;0.80;;;13.90;99.90;;;;;;4372818;32;20089;-75
2022/10/27 08:42:36;;;;;;;1.25;0.88;;;14.00;99.90;;;;;;4367317;32;20499;-74
2022/10/27 08:45:10;;;;;;;19.08;2.17;;;14.20;99.90;;;;;;4340079;32;20134;-74
2022/10/27 08:47:36;;;;;;;0.65;0.65;;;14.30;99.90;;;;;;4366729;32;20091;-75
2022/10/27 08:50:11;;;;;;;2.92;1.33;;;14.40;99.90;;;;;;4371988;32;20134;-76
2022/10/27 08:52:57;;;;;;;0.30;0.30;;;14.50;99.90;;;;;;4370024;32;20419;-75
2022/10/27 08:55:32;;;;;;;2.08;1.23;;;14.60;99.90;;;;;;4372253;32;20066;-75
2022/10/27 08:58:08;;;;;;;0.62;0.62;;;14.70;99.90;;;;;;4371858;32;20086;-75
2022/10/27 09:00:45;;;;;;;4.28;1.52;;;14.90;99.90;;;;;;4369001;32;20083;-74
2022/10/27 09:03:42;;;;;;;1.05;0.88;;;15.10;99.90;;;;;;4353302;32;20087;-74
2022/10/27 09:06:15;;;;;;;0.50;0.50;;;15.20;99.90;;;;;;4352131;32;20617;-74
2022/10/27 09:09:04;;;;;;;0.90;0.70;;;15.30;99.90;;;;;;4370078;32;20134;-75
2022/10/27 09:11:38;;;;;;;0.73;0.73;;;15.40;99.90;;;;;;4365925;32;20069;-74
2022/10/27 09:14:26;;;;;;;0.40;0.40;;;15.60;99.90;;;;;;4363419;32;20098;-75
2022/10/27 09:16:58;;;;;;;1.17;0.65;;;15.70;99.90;;;;;;4362239;32;20444;-76
2022/10/27 09:19:32;;;;;;;0.82;0.82;;;15.90;99.90;;;;;;4371903;32;20066;-75
2022/10/27 09:22:01;;;;;;;0.50;0.50;;;16.10;99.90;;;;;;4370429;32;20463;-74
2022/10/27 09:24:29;;;;;;;0.60;0.60;;;16.40;99.90;;;;;;4370731;32;20492;-76
2022/10/27 09:26:57;;;;;;;0.60;0.60;;;16.40;99.90;;;;;;4371934;32;20091;-74
2022/10/27 09:29:23;;;;;;;3.42;0.85;;;16.60;99.90;;;;;;4371639;32;20080;-74
2022/10/27 09:32:03;;;;;;;4.00;1.15;;;16.80;99.90;;;;;;4361048;32;20074;-73
2022/10/27 09:34:39;;;;;;;4.07;1.33;;;17.00;99.90;;;;;;4345495;32;20074;-74
2022/10/27 09:37:13;;;;;;;0.88;0.60;;;17.10;99.90;;;;;;4359786;32;20079;-74
2022/10/27 09:39:45;;;;;;;0.70;0.70;;;17.40;99.90;;;;;;4367836;32;20086;-75
2022/10/27 09:42:11;;;;;;;3.90;0.93;;;17.40;99.90;;;;;;4368426;32;20058;-74
2022/10/27 09:44:36;;;;;;;0.50;0.50;;;17.40;99.90;;;;;;4358724;32;20106;-74
2022/10/27 09:47:02;;;;;;;12.25;0.52;;;17.50;99.90;;;;;;4364996;32;20071;-75
2022/10/27 09:49:34;;;;;;;0.50;0.50;;;17.70;99.90;;;;;;4370530;32;20677;-75
2022/10/27 09:52:05;;;;;;;0.65;0.65;;;17.80;99.90;;;;;;4369008;32;20070;-75
2022/10/27 09:54:33;;;;;;;2.03;1.15;;;17.90;99.90;;;;;;4368702;32;20081;-75
2022/10/27 09:57:06;;;;;;;0.50;0.50;;;18.00;99.90;;;;;;4371219;32;20459;-74
2022/10/27 09:59:34;;;;;;;1.90;1.35;;;18.00;99.90;;;;;;4372560;32;20126;-74
2022/10/27 10:02:00;;;;;;;0.45;0.45;;;18.00;99.90;;;;;;4362134;32;20070;-73
2022/10/27 10:04:29;;;;;;;1.30;0.73;;;17.90;99.90;;;;;;4346716;32;20590;-74
2022/10/27 10:06:57;;;;;;;1.55;1.00;;;17.80;99.90;;;;;;4354743;32;20141;-74
2022/10/27 10:09:26;;;;;;;1.75;0.80;;;17.90;99.90;;;;;;4370399;32;20175;-74
2022/10/27 10:12:15;;;;;;;1.25;0.82;;;17.90;99.90;;;;;;4367413;32;20800;-73
2022/10/27 10:14:41;;;;;;;1.75;1.17;;;18.10;99.90;;;;;;4360368;32;20079;-74
2022/10/27 10:17:19;;;;;;;0.45;0.45;;;18.20;99.90;;;;;;4366768;32;20399;-75
2022/10/27 10:19:46;;;;;;;0.52;0.52;;;18.30;99.90;;;;;;4372461;32;20133;-74
2022/10/27 10:22:21;;;;;;;0.77;0.77;;;18.40;99.90;;;;;;4372529;32;20075;-74
2022/10/27 10:24:46;;;;;;;0.40;0.40;;;18.50;99.90;;;;;;4371722;32;20728;-75
2022/10/27 10:27:24;;;;;;;0.37;0.37;;;18.60;99.90;;;;;;4368586;32;20106;-74
2022/10/27 10:29:49;;;;;;;0.43;0.43;;;18.70;99.90;;;;;;4366875;32;20090;-74
2022/10/27 10:32:19;;;;;;;2.30;1.35;;;18.70;99.90;;;;;;4360005;32;20161;-74
2022/10/27 10:34:44;;;;;;;1.48;0.73;;;18.80;99.90;;;;;;4347150;32;20492;-74
2022/10/27 10:37:39;;;;;;;20.98;1.10;;;18.90;99.90;;;;;;4358173;32;20326;-75
2022/10/27 10:40:22;;;;;;;1.30;0.60;;;18.80;99.90;;;;;;4361448;32;20089;-74
2022/10/27 10:43:00;;;;;;;0.77;0.77;;;18.80;99.90;;;;;;4348698;32;20148;-74
2022/10/27 10:45:28;;;;;;;2.28;0.80;;;18.90;99.90;;;;;;4357724;32;20071;-73
2022/10/27 10:47:58;;;;;;;0.37;0.37;;;18.90;99.90;;;;;;4365567;32;20832;-74
2022/10/27 10:50:24;;;;;;;0.45;0.45;;;19.00;99.90;;;;;;4371341;32;20066;-74
2022/10/27 10:52:52;;;;;;;0.85;0.85;;;19.20;99.90;;;;;;4369397;32;20077;-74
2022/10/27 10:55:31;;;;;;;1.77;1.37;;;19.20;99.90;;;;;;4367944;32;20111;-74
2022/10/27 10:57:57;;;;;;;0.30;0.30;;;19.20;99.90;;;;;;4369779;32;20090;-74
2022/10/27 11:00:23;;;;;;;0.52;0.40;;;19.40;99.90;;;;;;4368179;32;20083;-74
2022/10/27 11:03:02;;;;;;;1.95;1.27;;;19.50;99.90;;;;;;4355781;32;20484;-73
2022/10/27 11:05:33;;;;;;;0.43;0.43;;;19.60;99.90;;;;;;4346108;32;20191;-74
2022/10/27 11:07:59;;;;;;;0.85;0.47;;;19.70;99.90;;;;;;4365642;32;20066;-74
2022/10/27 11:10:37;;;;;;;0.60;0.60;;;19.90;99.90;;;;;;4369804;32;20087;-74
2022/10/27 11:13:10;;;;;;;0.75;0.75;;;20.20;99.90;;;;;;4356451;32;20394;-73
2022/10/27 11:16:01;;;;;;;0.90;0.68;;;20.40;99.90;;;;;;4358900;32;20415;-76
2022/10/27 11:18:49;;;;;;;0.68;0.62;;;20.70;99.90;;;;;;4363737;32;20089;-75
2022/10/27 11:21:27;;;;;;;0.40;0.40;;;21.00;99.90;;;;;;4370803;32;20078;-75
2022/10/27 11:23:57;;;;;;;0.30;0.30;;;21.30;99.90;;;;;;4354869;32;20094;-75
2022/10/27 11:26:33;;;;;;;0.25;0.25;;;21.60;99.90;;;;;;4368521;32;20074;-75
2022/10/27 11:29:10;;;;;;;0.30;0.30;;;22.00;99.90;;;;;;4367099;32;20102;-74
2022/10/27 11:31:45;;;;;;;3.20;0.77;;;22.30;99.90;;;;;;4358574;32;20067;-73
2022/10/27 11:34:38;;;;;;;0.20;0.20;;;22.10;99.90;;;;;;4344738;32;20090;-73
2022/10/27 11:37:25;;;;;;;1.20;0.70;;;21.90;99.90;;;;;;4349799;32;20090;-74
2022/10/27 11:40:04;;;;;;;0.57;0.57;;;22.00;99.90;;;;;;4358795;32;20376;-74
2022/10/27 11:42:42;;;;;;;0.65;0.30;;;22.20;99.90;;;;;;4363712;32;20102;-75
2022/10/27 11:45:19;;;;;;;0.20;0.20;;;21.90;99.90;;;;;;4358734;32;20211;-75
2022/10/27 11:47:51;;;;;;;0.20;0.20;;;21.60;99.90;;;;;;4363634;32;20550;-75
2022/10/27 11:50:32;;;;;;;0.47;0.47;;;21.60;99.90;;;;;;4368702;32;20545;-76
2022/10/27 11:52:59;;;;;;;5.70;0.50;;;21.60;99.90;;;;;;4360674;32;20148;-74
2022/10/27 11:55:35;;;;;;;0.55;0.55;;;21.70;99.90;;;;;;4369994;32;20066;-74
2022/10/27 11:58:26;;;;;;;1.33;0.68;;;21.90;99.90;;;;;;4369328;32;20062;-74
2022/10/27 12:00:59;;;;;;;0.45;0.43;;;22.30;99.90;;;;;;4356492;32;20078;-74
2022/10/27 12:03:50;;;;;;;1.77;1.25;;;22.40;99.90;;;;;;4349805;32;20533;-74
2022/10/27 12:06:26;;;;;;;0.37;0.37;;;22.80;99.90;;;;;;4347612;32;20111;-74
2022/10/27 12:09:04;;;;;;;0.30;0.30;;;23.20;99.90;;;;;;4369960;32;20131;-74
2022/10/27 12:11:50;;;;;;;0.32;0.30;;;23.40;99.90;;;;;;4368084;32;20106;-74
2022/10/27 12:14:38;;;;;;;0.40;0.40;;;23.70;99.90;;;;;;4359143;32;20110;-74
2022/10/27 12:17:19;;;;;;;3.30;0.20;;;23.80;99.90;;;;;;4358096;32;20083;-74
2022/10/27 12:19:47;;;;;;;2.25;1.33;;;24.20;99.90;;;;;;4372786;32;20156;-74
2022/10/27 12:22:38;;;;;;;0.10;0.10;;;24.50;99.90;;;;;;4372406;32;20470;-74
2022/10/27 12:25:12;;;;;;;0.10;0.10;;;24.80;99.90;;;;;;4372689;32;20141;-75
2022/10/27 12:27:41;;;;;;;0.20;0.20;;;24.90;99.90;;;;;;4369509;32;20095;-75
2022/10/27 12:30:09;;;;;;;0.30;0.30;;;;;;;;;;4368193;32;20063;-74
2022/10/27 12:33:00;;;;;;;0.20;0.20;;;25.30;99.90;;;;;;4356978;32;20549;-74
2022/10/27 12:35:45;;;;;;;0.25;0.20;;;24.90;99.90;;;;;;4336374;32;20082;-74
2022/10/27 12:38:20;;;;;;;0.30;0.30;;;25.00;99.90;;;;;;4364967;32;20459;-75
2022/10/27 12:41:11;;;;;;;0.43;0.20;;;25.20;99.90;;;;;;4371524;32;20106;-75
2022/10/27 12:43:50;;;;;;;0.20;0.20;;;24.90;99.90;;;;;;4350274;32;20067;-74
2022/10/27 12:46:31;;;;;;;0.20;0.20;;;24.70;99.90;;;;;;4357290;32;20103;-74
2022/10/27 12:49:25;;;;;;;0.20;0.20;;;24.10;99.90;;;;;;4373505;32;20086;-74
2022/10/27 12:52:03;;;;;;;0.20;0.20;;;23.90;99.90;;;;;;4367084;32;20498;-74
2022/10/27 12:55:09;;;;;;;0.25;0.25;;;23.40;99.90;;;;;;4368503;32;20107;-74
2022/10/27 12:57:55;;;;;;;0.77;0.60;;;23.10;99.90;;;;;;4351659;32;20102;-74
2022/10/27 13:00:23;;;;;;;0.30;0.30;;;22.90;99.90;;;;;;4362211;32;20074;-74
2022/10/27 13:03:10;;;;;;;0.50;0.50;;;22.90;99.90;;;;;;4358159;32;20094;-74